• Join FlightAware (Why Join?)
  • Login
  • US Flag 
12:25PM EDT


 

Airport Tracker/Info


-or-


 

Live Flight TrackerFlight Track Log ✈ AAL461 ✈ 23-Apr-2013 ✈ KDFW - KMSY

Flight Track Log - Related Links

Times and Time Zones

All times are in EDT time to prevent confusion due to time zone crossing. See the AAL461 flight status page for this flight to view local times or setup timezone preferences in your user account.

Time Position Orientation Groundspeed Altitude Reporting Facility
EDT Latitude Longitude Course Direction KTS MPH feet Rate Location/Type
11:47PM 32.9167 -97.0333 101° East 139 160 2,300  Level Dallas / Fort Worth TRACON
11:48PM 32.9667 -97.0167 16° North 226 260 4,900 2,460 Climbing Dallas / Fort Worth TRACON
11:49PM 33.0333 -96.9667 32° Northeast 311 358 7,300 2,340 Climbing Dallas / Fort Worth TRACON
11:50PM 32.6886 -96.7555 77° East  Level FlightAware Approximate
11:50PM 33.0000 -96.8667 112° Southeast 295 339 9,400  Level Dallas / Fort Worth TRACON
11:51PM 32.7181 -96.5985 77° East  Level FlightAware Approximate
11:51PM 32.9667 -96.7833 115° Southeast 314 361 11,100  Level Dallas / Fort Worth TRACON
11:52PM 32.7398 -96.4399 84° East  Level FlightAware Approximate
11:53PM 32.7467 -96.2799 101° East  Level FlightAware Approximate
11:53PM 32.8756 -96.5878 119° Southeast 350 403 15,500  Level Houston Center
11:54PM 32.8469 -96.5281 120° Southeast 383 441 16,900 2,640 Climbing Fort Worth Center
11:55PM 32.7939 -96.4100 118° Southeast 396 456 19,500 2,460 Climbing Fort Worth Center
11:56PM 32.7511 -96.2772 111° Southeast 418 481 21,900 2,160 Climbing Fort Worth Center
11:57PM 32.7308 -96.1417 100° East 445 512 23,900 2,100 Climbing Fort Worth Center
11:58PM 32.7083 -95.9889 100° East 471 542 26,100 2,040 Climbing Fort Worth Center
11:59PM 32.6772 -95.8167 102° East 476 548 28,000 1,800 Climbing Fort Worth Center
12:00AM 32.6561 -95.6517 99° East 491 565 29,700 1,920 Climbing Fort Worth Center
12:01AM 32.6642 -95.4861 87° East 496 571 31,900 1,620 Climbing Fort Worth Center
12:02AM 32.6803 -95.3228 83° East 496 571 33,000 540 Climbing Fort Worth Center
12:03AM 32.6861 -95.1697 87° East 501 577 33,000  Level Fort Worth Center
12:04AM 32.6975 -94.9992 85° East 506 582 33,000  Level Fort Worth Center
12:05AM 32.7089 -94.8308 85° East 506 582 33,000  Level Fort Worth Center
12:06AM 32.6700 -94.6742 106° East 491 565 33,000  Level Fort Worth Center
12:07AM 32.6164 -94.5153 112° Southeast 497 572 33,000 360 Level Fort Worth Center
12:08AM 32.5647 -94.3642 112° Southeast 497 572 33,800 900 Climbing Fort Worth Center
12:09AM 32.5108 -94.2108 113° Southeast 502 578 34,800 600 Climbing Fort Worth Center
12:10AM 32.4589 -94.0553 112° Southeast 502 578 35,000 60 Climbing Fort Worth Center
12:11AM 32.4044 -93.8997 112° Southeast 502 578 35,000  Level Fort Worth Center
12:12AM 32.3519 -93.7444 112° Southeast 507 583 35,000  Level Fort Worth Center
12:13AM 32.2994 -93.5917 112° Southeast 507 583 35,000  Level Fort Worth Center
12:15AM 32.2097 -93.3386 113° Southeast 508 585 35,000  Level Houston Center
12:16AM 32.1544 -93.1847 113° Southeast 509 586 35,000  Level Houston Center
12:17AM 32.1003 -93.0306 112° Southeast 509 586 35,000  Level Houston Center
12:18AM 32.0478 -92.8847 113° Southeast 505 581 35,000  Level Houston Center
12:19AM 31.9928 -92.7317 113° Southeast 507 583 35,000  Level Houston Center
12:20AM 31.9033 -92.6125 131° Southeast 490 564 35,000  Level Houston Center
12:21AM 31.8011 -92.5150 141° Southeast 478 550 35,000  Level Houston Center
12:22AM 31.6772 -92.3969 141° Southeast 478 550 35,000  Level Houston Center
12:23AM 31.5717 -92.2986 142° Southeast 482 555 35,000  Level Houston Center
12:24AM 31.4675 -92.2008 141° Southeast 480 552 35,000  Level Houston Center
12:25AM 31.3619 -92.1025 141° Southeast 482 555 35,000 -120 Level Houston Center
12:26AM 31.2686 -92.0161 142° Southeast 480 552 34,800 -1,200 Descending Houston Center
12:27AM 31.1628 -91.9169 141° Southeast 484 557 32,600 -2,340 Descending Houston Center
12:28AM 31.0583 -91.8192 141° Southeast 481 554 30,200 -2,580 Descending Houston Center
12:29AM 30.9525 -91.7228 142° Southeast 482 555 27,500 -2,580 Descending Houston Center
12:30AM 30.8475 -91.6250 141° Southeast 483 556 25,100 -2,340 Descending Houston Center
12:31AM 30.7472 -91.5331 142° Southeast 463 533 22,800 -2,280 Descending Houston Center
12:32AM 30.6506 -91.4444 142° Southeast 450 518 20,600 -2,100 Descending Houston Center
12:32AM 30.5758 -91.3789 143° Southeast 433 498 19,300 -1,740 Descending Houston Center
12:33AM 30.5458 -91.3508 141° Southeast 429 494 18,900 -1,500 Descending Houston Center
12:34AM 30.4519 -91.2667 142° Southeast 420 483 17,400 -1,980 Descending Houston Center
12:35AM 30.3644 -91.1828 140° Southeast 412 474 15,000 -2,400 Descending Houston Center
12:36AM 30.2792 -91.1033 141° Southeast 394 453 12,600 -1,860 Descending Houston Center
12:37AM 30.2064 -91.0361 141° Southeast 358 412 11,500 -900 Descending Houston Center
12:38AM 30.1381 -90.9733 142° Southeast 297 342 10,900 -1,200 Descending Houston Center
12:39AM 30.1086 -90.8878 112° Southeast 301 346 9,200 -1,920 Descending Houston Center
12:40AM 30.1031 -90.7864 94° East 298 343 6,900 -2,100 Descending Houston Center
12:41AM 30.0956 -90.7008 96° East 266 306 5,000 -1,560 Descending Houston Center
12:41AM 30.0814 -90.6414 105° East 213 245 4,100 -540 Descending Houston Center
12:42AM 30.0647 -90.5697 105° East 210 242 4,000 -180 Descending Houston Center
12:43AM 30.0525 -90.5125 104° East 180 207 3,800 -600 Descending Houston Center
12:45AM 30.0386 -90.4603 107° East 170 196 2,800 -900 Descending Houston Center
12:46AM 30.0244 -90.4008 105° East 174 200 1,900 -720 Descending Houston Center
12:47AM 30.0147 -90.3603 105° East 119 137 1,300 -600 Descending Houston Center
12:48AM 30.0075 -90.3269 104° East 109 125 700 -600 Descending Houston Center